»·PEaware :: N3610E KSEE-KSAN

N3610E :: KSEE-KSAN

FLIGHT INFORMATION

Flight Status: Arrived
Operator: Privately registered:
United States
More flights under this callsign
Pilot: John C. (12173)
Aircraft: CESSNA 172 SKYHAWK
(C172)
More flights by this aircraft type
Origin: KSEE Gillespie
United States
Destination: KSAN San Diego Intl-Lindbergh
United States
More flights between these airports :: More routes between these airports
Route: MZB
File this flight plan on PilotEdge
Remarks:
Altitude:
(Current/Filed)
3,000ft
Speed:
(Current/Filed)
100kts
Departed: 31-Jan-17 09:02 PM
Arrived: 31-Jan-17 09:28 PM
Distance/Time
Traveled:
13nm/0:26
Distance/Time
To Go:
Arrived

Flight Plot

Page will automatically refresh every two minutes.


Map Options




Map Legend


Flown Route
Filed Route
Departure Airport
Arrival Airport
Navaid (VOR, NDB)
Fix

Horizontal Profiles

Position Reports

Time Latitude Longitude Heading Altitude Ground
Speed
31-Jan-17 20:50 32.824929 -116.968929 14 380ft 0kts
31-Jan-17 20:51 32.824929 -116.968929 14 380ft 0kts
31-Jan-17 20:52 32.824929 -116.968929 14 380ft 0kts
31-Jan-17 20:53 32.824929 -116.968929 14 380ft 0kts
31-Jan-17 20:54 32.824929 -116.968929 14 380ft 0kts
31-Jan-17 20:55 32.824929 -116.968929 14 380ft 0kts
31-Jan-17 20:56 32.824929 -116.968929 14 380ft 0kts
31-Jan-17 20:57 32.824925 -116.968991 78 380ft 7kts
31-Jan-17 20:58 32.824850 -116.965516 102 387ft 12kts
31-Jan-17 20:59 32.825890 -116.964363 336 392ft 0kts
31-Jan-17 21:00 32.825890 -116.964363 336 392ft 0kts
31-Jan-17 21:01 32.826599 -116.965414 280 389ft 2kts
31-Jan-17 21:02 32.829226 -116.980936 278 789ft 84kts
31-Jan-17 21:03 32.837600 -116.977732 154 1738ft 95kts
31-Jan-17 21:04 32.813056 -116.973188 167 2801ft 91kts
31-Jan-17 21:05 32.787995 -116.974323 240 3060ft 108kts
31-Jan-17 21:06 32.783136 -117.009262 263 3090ft 114kts
31-Jan-17 21:07 32.781593 -117.046811 268 2843ft 113kts
31-Jan-17 21:08 32.781462 -117.083732 271 2750ft 113kts
31-Jan-17 21:09 32.784384 -117.120303 270 2737ft 113kts
31-Jan-17 21:10 32.781321 -117.154176 260 2854ft 108kts
31-Jan-17 21:11 32.782099 -117.184824 275 3006ft 111kts
31-Jan-17 21:12 32.782021 -117.211924 271 3095ft 111kts
31-Jan-17 21:13 32.784311 -117.239512 282 3134ft 112kts
31-Jan-17 21:14 32.791977 -117.268291 286 3097ft 112kts
31-Jan-17 21:15 32.799288 -117.297659 279 3035ft 112kts
31-Jan-17 21:16 32.804505 -117.327047 284 2977ft 112kts
31-Jan-17 21:17 32.811982 -117.356063 287 2666ft 111kts
31-Jan-17 21:18 32.819284 -117.384560 280 2246ft 111kts
31-Jan-17 21:19 32.806260 -117.404319 186 2021ft 103kts
31-Jan-17 21:20 32.782834 -117.393731 127 1973ft 101kts
31-Jan-17 21:21 32.777554 -117.360515 101 1939ft 98kts
31-Jan-17 21:22 32.769579 -117.335913 118 1893ft 101kts
31-Jan-17 21:23 32.763043 -117.312966 102 1961ft 100kts
31-Jan-17 21:24 32.757052 -117.288424 106 1651ft 100kts
31-Jan-17 21:25 32.751094 -117.261512 107 1123ft 98kts
31-Jan-17 21:26 32.743926 -117.233102 105 583ft 90kts
31-Jan-17 21:27 32.738247 -117.209164 106 182ft 64kts
31-Jan-17 21:28 32.735359 -117.198437 186 17ft 7kts
31-Jan-17 21:29 32.734025 -117.196674 328 17ft 0kts
31-Jan-17 21:30 32.734025 -117.196674 328 17ft 0kts
31-Jan-17 21:31 32.734047 -117.196687 335 17ft 0kts
31-Jan-17 21:32 32.734047 -117.196687 335 17ft 0kts
31-Jan-17 21:33 32.734047 -117.196687 335 17ft 0kts
31-Jan-17 21:34 32.734047 -117.196687 335 17ft 0kts
31-Jan-17 21:35 32.734047 -117.196687 335 17ft 0kts
31-Jan-17 21:36 32.734047 -117.196687 335 17ft 0kts
31-Jan-17 21:37 32.734047 -117.196687 335 17ft 0kts
31-Jan-17 21:38 32.734047 -117.196687 335 17ft 0kts
31-Jan-17 21:39 32.734047 -117.196687 335 17ft 0kts
31-Jan-17 21:40 32.734047 -117.196687 335 17ft 0kts
31-Jan-17 21:41 32.734047 -117.196687 335 17ft 0kts
31-Jan-17 21:42 32.734047 -117.196687 335 17ft 0kts

Navigation Log

Ident Type
Flight plan parsing failed, navigation log unavailable